Elk Creek, Missouri
Current Conditions -  °F | °C
As of 7:53 AM on Wednesday 26 Nov 2014 (Local Time) from KUNO Reporting Station
Overcast Overcast  
Wind Chill: 29°   Ceiling: 7500
Heat Index: 34°   Visibility: 10mi
Dew Point: 22°   Wind: 6mph
Humidity: 61%   Direction: 120°ESE
Pressure: 29.99"   Gusts: NA
Location:  37.19°N, 92°W
Report Text: KUNO 261353Z AUTO 12005KT 10SM OVC075 01/M06 A2999 RMK AO2 SLP164 T00111056
Loading
Personal Weather Stations






























Interactive Weather Map New forecast layout! Learn more

10-Day Weather Forecast

Advertisements
Track Severe Weather on mobile